Time,TemperatureF,DewpointF,PressureIn,WindDirection,WindDirectionDegrees,WindSpeedMPH,WindSpeedGustMPH,Humidity,HourlyPrecipIn,Conditions,Clouds,dailyrainin,SoftwareType,DateUTC
2015-07-07 00:01:00,68.0,37.8,29.98,SW,230,8.7,12.1,33,0.00,,CLR,0.00,VWS V14.00,2015-07-07 07:01:00,
2015-07-07 00:06:00,67.8,38.5,29.98,SW,230,8.1,9.4,34,0.00,,CLR,0.00,VWS V14.00,2015-07-07 07:06:00,
2015-07-07 00:11:00,67.8,38.5,29.98,SW,230,9.4,9.4,34,0.00,,CLR,0.00,VWS V14.00,2015-07-07 07:11:00,
2015-07-07 00:16:00,67.6,38.3,29.98,SW,230,5.4,12.1,34,0.00,,CLR,0.00,VWS V14.00,2015-07-07 07:16:00,
2015-07-07 00:21:00,67.6,38.3,29.98,SW,236,7.4,12.1,34,0.00,,CLR,0.00,VWS V14.00,2015-07-07 07:21:00,
2015-07-07 00:31:00,67.5,37.4,29.98,SW,227,8.1,12.1,33,0.00,,CLR,0.00,VWS V14.00,2015-07-07 07:31:00,
2015-07-07 00:36:00,67.5,37.4,29.98,SW,235,8.1,11.4,33,0.00,,CLR,0.00,VWS V14.00,2015-07-07 07:36:00,
2015-07-07 00:41:00,67.5,37.4,29.98,SW,222,8.7,11.4,33,0.00,,CLR,0.00,VWS V14.00,2015-07-07 07:41:00,
2015-07-07 00:46:00,67.5,37.4,29.98,SW,220,7.4,11.4,33,0.00,,CLR,0.00,VWS V14.00,2015-07-07 07:46:00,
2015-07-07 00:51:00,67.5,37.4,29.98,SW,235,5.4,11.4,33,0.00,,CLR,0.00,VWS V14.00,2015-07-07 07:51:00,
2015-07-07 00:56:00,67.5,37.4,29.98,SW,235,4.7,11.4,33,0.00,,CLR,0.00,VWS V14.00,2015-07-07 07:56:00,
2015-07-07 01:01:00,67.5,37.4,29.98,SW,235,4.7,11.4,33,0.00,,CLR,0.00,VWS V14.00,2015-07-07 08:01:00,
2015-07-07 01:06:00,67.3,37.2,29.98,SW,236,6.0,6.0,33,0.00,,CLR,0.00,VWS V14.00,2015-07-07 08:06:00,
2015-07-07 01:11:00,67.1,37.1,29.98,WSW,245,6.0,7.4,33,0.00,,CLR,0.00,VWS V14.00,2015-07-07 08:11:00,
2015-07-07 01:16:00,66.9,36.9,29.98,WSW,243,8.1,9.4,33,0.00,,CLR,0.00,VWS V14.00,2015-07-07 08:16:00,
2015-07-07 01:21:00,66.7,36.8,29.98,SW,225,4.0,10.1,33,0.00,,CLR,0.00,VWS V14.00,2015-07-07 08:21:00,
2015-07-07 01:26:00,66.7,36.8,29.98,WSW,238,5.4,10.1,33,0.00,,CLR,0.00,VWS V14.00,2015-07-07 08:26:00,
2015-07-07 01:31:00,66.6,36.6,29.98,WSW,238,4.7,10.1,33,0.00,,CLR,0.00,VWS V14.00,2015-07-07 08:31:00,
2015-07-07 01:36:00,66.4,36.4,29.98,WSW,237,5.4,8.7,33,0.00,,CLR,0.00,VWS V14.00,2015-07-07 08:36:00,
2015-07-07 01:41:00,66.4,36.4,29.98,SW,236,5.4,8.7,33,0.00,,CLR,0.00,VWS V14.00,2015-07-07 08:41:00,
2015-07-07 01:46:00,66.4,36.4,29.98,SW,235,8.7,9.4,33,0.00,,CLR,0.00,VWS V14.00,2015-07-07 08:46:00,
2015-07-07 01:51:00,66.4,36.4,29.98,SW,235,6.0,9.4,33,0.00,,CLR,0.00,VWS V14.00,2015-07-07 08:51:00,
2015-07-07 01:56:00,66.4,35.7,29.98,SW,235,6.0,9.4,32,0.00,,CLR,0.00,VWS V14.00,2015-07-07 08:56:00,
2015-07-07 02:01:00,66.4,35.7,29.98,SW,235,5.4,9.4,32,0.00,,CLR,0.00,VWS V14.00,2015-07-07 09:01:00,
2015-07-07 02:06:00,66.4,36.4,29.98,SW,235,8.1,9.4,33,0.00,,CLR,0.00,VWS V14.00,2015-07-07 09:06:00,
2015-07-07 02:11:00,66.2,35.5,29.95,SW,234,6.0,9.4,32,0.00,,CLR,0.00,VWS V14.00,2015-07-07 09:11:00,
2015-07-07 02:16:00,66.2,35.5,29.95,SW,233,5.4,10.1,32,0.00,,CLR,0.00,VWS V14.00,2015-07-07 09:16:00,
2015-07-07 02:21:00,66.2,35.5,29.95,SW,233,4.0,10.1,32,0.00,,CLR,0.00,VWS V14.00,2015-07-07 09:21:00,
2015-07-07 02:26:00,66.2,35.5,29.95,SW,231,5.4,10.1,32,0.00,,CLR,0.00,VWS V14.00,2015-07-07 09:26:00,
2015-07-07 02:31:00,66.2,35.5,29.95,SW,230,4.7,10.1,32,0.00,,CLR,0.00,VWS V14.00,2015-07-07 09:31:00,
2015-07-07 02:36:00,66.2,34.7,29.95,SW,230,4.0,8.1,31,0.00,,CLR,0.00,VWS V14.00,2015-07-07 09:36:00,
2015-07-07 02:41:00,66.2,34.7,29.95,SW,230,5.4,8.1,31,0.00,,CLR,0.00,VWS V14.00,2015-07-07 09:41:00,
2015-07-07 02:46:00,66.0,34.5,29.95,SW,230,5.4,8.1,31,0.00,,CLR,0.00,VWS V14.00,2015-07-07 09:46:00,
2015-07-07 02:51:00,65.8,34.4,29.95,SW,230,6.7,8.1,31,0.00,,CLR,0.00,VWS V14.00,2015-07-07 09:51:00,
2015-07-07 02:56:00,65.7,34.2,29.95,SW,230,6.0,8.1,31,0.00,,CLR,0.00,VWS V14.00,2015-07-07 09:56:00,
2015-07-07 03:01:00,65.7,33.4,29.95,SW,230,8.1,8.1,30,0.00,,CLR,0.00,VWS V14.00,2015-07-07 10:01:00,
2015-07-07 03:06:00,65.7,33.4,29.95,SW,230,4.0,6.0,30,0.00,,CLR,0.00,VWS V14.00,2015-07-07 10:06:00,
2015-07-07 03:21:00,65.5,30.6,29.95,SW,230,5.4,7.4,27,0.00,,CLR,0.00,VWS V14.00,2015-07-07 10:21:00,
2015-07-07 03:26:00,65.5,30.6,29.95,SW,230,5.4,7.4,27,0.00,,CLR,0.00,VWS V14.00,2015-07-07 10:26:00,
2015-07-07 03:31:00,65.5,29.7,29.95,SW,230,4.7,7.4,26,0.00,,CLR,0.00,VWS V14.00,2015-07-07 10:31:00,
2015-07-07 03:36:00,65.3,29.6,29.95,SW,230,4.0,6.0,26,0.00,,CLR,0.00,VWS V14.00,2015-07-07 10:36:00,
2015-07-07 03:41:00,65.1,28.5,29.95,SW,230,5.4,6.0,25,0.00,,CLR,0.00,VWS V14.00,2015-07-07 10:41:00,
2015-07-07 03:46:00,65.1,28.5,29.95,SW,230,4.0,6.7,25,0.00,,CLR,0.00,VWS V14.00,2015-07-07 10:46:00,
2015-07-07 03:51:00,64.8,29.1,29.95,SW,230,5.4,6.7,26,0.00,,CLR,0.00,VWS V14.00,2015-07-07 10:51:00,
2015-07-07 03:56:00,64.6,29.0,29.95,SW,230,4.7,6.7,26,0.00,,CLR,0.00,VWS V14.00,2015-07-07 10:56:00,
2015-07-07 04:01:00,64.4,28.8,29.95,SW,230,4.0,6.7,26,0.00,,CLR,0.00,VWS V14.00,2015-07-07 11:01:00,
2015-07-07 04:06:00,64.2,29.6,29.95,SW,230,5.4,6.0,27,0.00,,CLR,0.00,VWS V14.00,2015-07-07 11:06:00,
2015-07-07 04:11:00,64.0,29.4,29.95,SW,230,3.4,6.0,27,0.00,,CLR,0.00,VWS V14.00,2015-07-07 11:11:00,
2015-07-07 04:16:00,63.7,29.1,29.95,SW,230,4.0,6.0,27,0.00,,CLR,0.00,VWS V14.00,2015-07-07 11:16:00,
2015-07-07 04:21:00,63.5,29.8,29.95,SW,230,0.0,6.0,28,0.00,,CLR,0.00,VWS V14.00,2015-07-07 11:21:00,
2015-07-07 04:26:00,63.1,29.5,29.95,SW,230,0.0,6.0,28,0.00,,CLR,0.00,VWS V14.00,2015-07-07 11:26:00,
2015-07-07 04:31:00,63.0,30.2,29.95,SW,230,3.4,6.0,29,0.00,,CLR,0.00,VWS V14.00,2015-07-07 11:31:00,
2015-07-07 04:36:00,62.6,29.9,29.95,SW,230,4.0,4.7,29,0.00,,CLR,0.00,VWS V14.00,2015-07-07 11:36:00,
2015-07-07 04:41:00,62.6,29.9,29.98,SW,230,0.0,5.4,29,0.00,,CLR,0.00,VWS V14.00,2015-07-07 11:41:00,
2015-07-07 04:46:00,62.2,30.5,29.98,SW,230,4.7,5.4,30,0.00,,CLR,0.00,VWS V14.00,2015-07-07 11:46:00,
2015-07-07 04:51:00,62.2,31.2,29.98,SW,230,4.0,5.4,31,0.00,,CLR,0.00,VWS V14.00,2015-07-07 11:51:00,
2015-07-07 04:56:00,61.9,30.9,29.98,SW,230,0.0,5.4,31,0.00,,CLR,0.00,VWS V14.00,2015-07-07 11:56:00,
2015-07-07 05:01:00,61.7,30.8,29.98,SW,230,0.0,5.4,31,0.00,,CLR,0.00,VWS V14.00,2015-07-07 12:01:00,
2015-07-07 05:06:00,61.3,30.5,29.98,SW,230,4.7,6.0,31,0.00,,CLR,0.00,VWS V14.00,2015-07-07 12:06:00,
2015-07-07 05:11:00,61.3,30.5,29.98,SW,230,3.4,6.0,31,0.00,,CLR,0.00,VWS V14.00,2015-07-07 12:11:00,
2015-07-07 05:16:00,61.2,31.1,29.98,SW,230,4.0,6.0,32,0.00,,CLR,0.00,VWS V14.00,2015-07-07 12:16:00,
2015-07-07 05:21:00,61.2,31.1,29.98,SW,230,0.0,6.0,32,0.00,,CLR,0.00,VWS V14.00,2015-07-07 12:21:00,
2015-07-07 05:26:00,61.0,30.2,29.98,SW,230,4.7,6.0,31,0.00,,CLR,0.00,VWS V14.00,2015-07-07 12:26:00,
2015-07-07 05:31:00,60.8,29.2,29.98,SW,230,3.4,6.0,30,0.00,,CLR,0.00,VWS V14.00,2015-07-07 12:31:00,
2015-07-07 05:36:00,60.6,30.6,29.98,SW,230,4.0,5.4,32,0.00,,CLR,0.00,VWS V14.00,2015-07-07 12:36:00,
2015-07-07 05:41:00,60.6,30.6,29.98,SW,230,4.0,5.4,32,0.00,,CLR,0.00,VWS V14.00,2015-07-07 12:41:00,
2015-07-07 05:46:00,60.8,31.5,29.98,SW,230,3.4,5.4,33,0.00,,CLR,0.00,VWS V14.00,2015-07-07 12:46:00,
2015-07-07 05:51:00,60.6,30.6,29.98,SW,230,4.0,5.4,32,0.00,,CLR,0.00,VWS V14.00,2015-07-07 12:51:00,
2015-07-07 05:56:00,60.4,30.5,29.98,SW,230,0.0,5.4,32,0.00,,CLR,0.00,VWS V14.00,2015-07-07 12:56:00,
2015-07-07 06:01:00,60.4,30.5,29.98,SW,230,6.0,6.0,32,0.00,,CLR,0.00,VWS V14.00,2015-07-07 13:01:00,
2015-07-07 06:06:00,60.6,30.6,29.98,SW,230,0.0,3.4,32,0.00,,CLR,0.00,VWS V14.00,2015-07-07 13:06:00,
2015-07-07 06:11:00,61.0,30.2,29.98,SW,230,4.0,5.4,31,0.00,,CLR,0.00,VWS V14.00,2015-07-07 13:11:00,
2015-07-07 06:16:00,61.2,30.3,29.98,SW,230,6.0,6.0,31,0.00,,CLR,0.00,VWS V14.00,2015-07-07 13:16:00,
2015-07-07 06:21:00,61.7,30.0,29.98,SW,230,4.7,6.0,30,0.00,,CLR,0.00,VWS V14.00,2015-07-07 13:21:00,
2015-07-07 06:26:00,62.2,29.6,29.98,SW,230,0.0,6.0,29,0.00,,CLR,0.00,VWS V14.00,2015-07-07 13:26:00,
2015-07-07 06:36:00,64.4,29.7,29.98,SW,230,0.0,0.0,27,0.00,,CLR,0.00,VWS V14.00,2015-07-07 13:36:00,
2015-07-07 06:41:00,66.0,31.1,29.98,SW,230,4.7,4.7,27,0.00,,CLR,0.00,VWS V14.00,2015-07-07 13:41:00,
2015-07-07 06:46:00,67.3,30.3,29.98,SW,230,0.0,4.7,25,0.00,,CLR,0.00,VWS V14.00,2015-07-07 13:46:00,
2015-07-07 06:51:00,68.5,30.4,29.98,SW,230,0.0,4.7,24,0.00,,CLR,0.00,VWS V14.00,2015-07-07 13:51:00,
2015-07-07 06:56:00,70.0,31.6,29.98,SW,230,0.0,4.7,24,0.00,,CLR,0.00,VWS V14.00,2015-07-07 13:56:00,
2015-07-07 07:01:00,71.2,31.6,29.98,SW,230,0.0,4.7,23,0.00,,CLR,0.00,VWS V14.00,2015-07-07 14:01:00,
2015-07-07 07:06:00,72.9,31.8,29.98,SW,230,0.0,0.0,22,0.00,,CLR,0.00,VWS V14.00,2015-07-07 14:06:00,
2015-07-07 07:11:00,74.1,32.9,29.98,SW,230,0.0,0.0,22,0.00,,CLR,0.00,VWS V14.00,2015-07-07 14:11:00,
2015-07-07 07:16:00,75.6,32.9,29.98,SW,230,0.0,0.0,21,0.00,,CLR,0.00,VWS V14.00,2015-07-07 14:16:00,
2015-07-07 07:21:00,77.0,32.9,29.98,SW,230,0.0,3.4,20,0.00,,CLR,0.00,VWS V14.00,2015-07-07 14:21:00,
2015-07-07 07:26:00,78.3,33.9,29.98,SW,230,0.0,3.4,20,0.00,,CLR,0.00,VWS V14.00,2015-07-07 14:26:00,
2015-07-07 07:31:00,79.2,34.7,29.98,SW,230,0.0,3.4,20,0.00,,CLR,0.00,VWS V14.00,2015-07-07 14:31:00,
2015-07-07 07:36:00,79.9,35.3,29.98,SW,230,3.4,4.7,20,0.00,,CLR,0.00,VWS V14.00,2015-07-07 14:36:00,
2015-07-07 07:41:00,80.6,34.6,29.98,SW,230,4.0,6.0,19,0.00,,CLR,0.00,VWS V14.00,2015-07-07 14:41:00,
2015-07-07 07:46:00,81.1,32.2,29.98,SW,230,4.0,6.0,17,0.00,,CLR,0.00,VWS V14.00,2015-07-07 14:46:00,
2015-07-07 07:51:00,81.5,32.5,29.98,SW,230,0.0,6.0,17,0.00,,CLR,0.00,VWS V14.00,2015-07-07 14:51:00,
2015-07-07 07:56:00,82.0,33.0,29.98,SW,230,3.4,6.0,17,0.00,,CLR,0.00,VWS V14.00,2015-07-07 14:56:00,
2015-07-07 08:01:00,82.4,31.8,29.98,SW,230,0.0,6.0,16,0.00,,CLR,0.00,VWS V14.00,2015-07-07 15:01:00,
2015-07-07 08:06:00,82.8,32.0,29.98,SW,230,6.0,6.0,16,0.00,,CLR,0.00,VWS V14.00,2015-07-07 15:06:00,
2015-07-07 08:11:00,83.1,32.3,29.98,SW,230,0.0,6.0,16,0.00,,CLR,0.00,VWS V14.00,2015-07-07 15:11:00,
2015-07-07 08:16:00,83.5,32.6,29.98,SW,230,4.7,8.7,16,0.00,,CLR,0.00,VWS V14.00,2015-07-07 15:16:00,
2015-07-07 08:21:00,83.8,32.9,29.98,SW,230,0.0,8.7,16,0.00,,CLR,0.00,VWS V14.00,2015-07-07 15:21:00,
2015-07-07 08:26:00,84.4,33.3,29.98,SW,230,3.4,8.7,16,0.00,,CLR,0.00,VWS V14.00,2015-07-07 15:26:00,
2015-07-07 08:31:00,84.4,33.3,29.98,SW,230,0.0,8.7,16,0.00,,CLR,0.00,VWS V14.00,2015-07-07 15:31:00,
2015-07-07 08:36:00,84.4,33.3,29.98,SW,230,0.0,6.0,16,0.00,,CLR,0.00,VWS V14.00,2015-07-07 15:36:00,
2015-07-07 08:41:00,84.6,33.5,29.98,SW,230,4.0,6.0,16,0.00,,CLR,0.00,VWS V14.00,2015-07-07 15:41:00,
2015-07-07 08:46:00,85.1,33.9,29.98,SW,230,4.0,6.0,16,0.00,,CLR,0.00,VWS V14.00,2015-07-07 15:46:00,
2015-07-07 08:51:00,85.8,34.5,29.98,SW,230,0.0,6.0,16,0.00,,CLR,0.00,VWS V14.00,2015-07-07 15:51:00,
2015-07-07 08:57:00,86.4,34.9,29.98,SW,230,0.0,6.0,16,0.00,,CLR,0.00,VWS V14.00,2015-07-07 15:57:00,
2015-07-07 09:02:00,87.1,35.5,29.98,SW,230,0.0,6.0,16,0.00,,CLR,0.00,VWS V14.00,2015-07-07 16:02:00,
2015-07-07 09:07:00,87.6,35.9,29.98,SW,230,4.0,5.4,16,0.00,,CLR,0.00,VWS V14.00,2015-07-07 16:07:00,
2015-07-07 09:12:00,87.8,34.5,29.98,SW,230,3.4,5.4,15,0.00,,CLR,0.00,VWS V14.00,2015-07-07 16:12:00,
2015-07-07 09:15:00,88.2,34.7,29.98,SW,230,4.7,5.4,15,0.00,,CLR,0.00,VWS V14.00,2015-07-07 16:15:00,
2015-07-07 09:20:00,88.7,35.2,29.98,SW,230,4.0,5.4,15,0.00,,CLR,0.00,VWS V14.00,2015-07-07 16:20:00,
2015-07-07 09:25:00,88.7,35.2,29.98,SW,230,4.0,6.0,15,0.00,,CLR,0.00,VWS V14.00,2015-07-07 16:25:00,
2015-07-07 09:27:00,88.9,35.3,29.95,SW,230,4.0,6.0,15,0.00,,CLR,0.00,VWS V14.00,2015-07-07 16:27:00,
2015-07-07 09:32:00,89.4,35.7,29.95,SW,230,3.4,6.0,15,0.00,,CLR,0.00,VWS V14.00,2015-07-07 16:32:00,
2015-07-07 09:37:00,89.8,36.0,29.95,SW,230,4.7,5.4,15,0.00,,CLR,0.00,VWS V14.00,2015-07-07 16:37:00,
2015-07-07 09:42:00,90.3,36.5,29.95,SW,230,0.0,5.4,15,0.00,,CLR,0.00,VWS V14.00,2015-07-07 16:42:00,
2015-07-07 09:47:00,90.7,36.7,29.95,SSE,163,7.4,9.4,15,0.00,,CLR,0.00,VWS V14.00,2015-07-07 16:47:00,
2015-07-07 09:52:00,91.2,37.2,29.95,ESE,104,3.4,9.4,15,0.00,,CLR,0.00,VWS V14.00,2015-07-07 16:52:00,
2015-07-07 09:55:00,91.4,35.6,29.95,ENE,57,4.7,9.4,14,0.00,,CLR,0.00,VWS V14.00,2015-07-07 16:55:00,
2015-07-07 10:00:00,91.2,37.2,29.95,NE,36,0.0,9.4,15,0.00,,CLR,0.00,VWS V14.00,2015-07-07 17:00:00,
2015-07-07 10:03:00,91.4,35.6,29.95,NE,36,6.0,9.4,14,0.00,,CLR,0.00,VWS V14.00,2015-07-07 17:03:00,
2015-07-07 10:05:00,91.4,35.6,29.95,SW,217,8.7,12.1,14,0.00,,CLR,0.00,VWS V14.00,2015-07-07 17:05:00,
2015-07-07 10:10:00,91.4,31.7,29.95,South,184,6.0,13.1,12,0.00,,CLR,0.00,VWS V14.00,2015-07-07 17:10:00,
2015-07-07 10:15:00,91.4,31.7,29.95,SSW,213,8.7,20.5,12,0.00,,CLR,0.00,VWS V14.00,2015-07-07 17:15:00,
2015-07-07 10:20:00,91.8,32.0,29.95,SE,138,12.4,20.5,12,0.00,,CLR,0.00,VWS V14.00,2015-07-07 17:20:00,
2015-07-07 10:25:00,91.8,32.0,29.95,SSE,158,4.0,20.5,12,0.00,,CLR,0.00,VWS V14.00,2015-07-07 17:25:00,
2015-07-07 10:30:00,92.7,32.7,29.95,SSE,150,9.4,20.5,12,0.00,,CLR,0.00,VWS V14.00,2015-07-07 17:30:00,
2015-07-07 10:35:00,93.0,33.0,29.95,SSE,155,11.4,11.4,12,0.00,,CLR,0.00,VWS V14.00,2015-07-07 17:35:00,
2015-07-07 10:40:00,93.2,31.0,29.95,South,182,8.7,19.1,11,0.00,,CLR,0.00,VWS V14.00,2015-07-07 17:40:00,
2015-07-07 10:45:00,93.7,37.4,29.95,SSE,155,8.7,19.1,14,0.00,,CLR,0.00,VWS V14.00,2015-07-07 17:45:00,
2015-07-07 10:50:00,93.7,37.4,29.95,SSW,211,9.4,19.1,14,0.00,,CLR,0.00,VWS V14.00,2015-07-07 17:50:00,
2015-07-07 10:55:00,92.3,32.4,29.95,South,177,12.1,19.1,12,0.00,,CLR,0.00,VWS V14.00,2015-07-07 17:55:00,
2015-07-07 11:00:00,92.7,32.7,29.95,SW,218,9.4,19.1,12,0.00,,CLR,0.00,VWS V14.00,2015-07-07 18:00:00,
2015-07-07 11:05:00,93.9,37.5,29.95,ESE,119,9.4,12.4,14,0.00,,CLR,0.00,VWS V14.00,2015-07-07 18:05:00,
2015-07-07 11:10:00,94.5,38.0,29.95,SSE,168,8.7,17.1,14,0.00,,CLR,0.00,VWS V14.00,2015-07-07 18:10:00,
2015-07-07 11:15:00,93.7,31.4,29.95,SW,227,4.7,19.8,11,0.00,,CLR,0.00,VWS V14.00,2015-07-07 18:15:00,
2015-07-07 11:20:00,93.0,33.0,29.95,South,170,8.1,19.8,12,0.00,,CLR,0.00,VWS V14.00,2015-07-07 18:20:00,
2015-07-07 11:25:00,91.9,32.1,29.95,South,184,9.4,19.8,12,0.00,,CLR,0.00,VWS V14.00,2015-07-07 18:25:00,
2015-07-07 11:30:00,92.1,32.3,29.95,WSW,239,7.4,20.5,12,0.00,,CLR,0.00,VWS V14.00,2015-07-07 18:30:00,
2015-07-07 11:35:00,91.4,31.7,29.95,SSE,165,12.4,19.1,12,0.00,,CLR,0.00,VWS V14.00,2015-07-07 18:35:00,
2015-07-07 11:40:00,92.8,32.8,29.95,South,173,13.1,19.1,12,0.00,,CLR,0.00,VWS V14.00,2015-07-07 18:40:00,
2015-07-07 11:45:00,92.8,32.8,29.95,SE,140,18.5,19.8,12,0.00,,CLR,0.00,VWS V14.00,2015-07-07 18:45:00,
2015-07-07 11:50:00,92.8,32.8,29.95,South,169,7.4,19.8,12,0.00,,CLR,0.00,VWS V14.00,2015-07-07 18:50:00,
2015-07-07 11:55:00,92.8,32.8,29.95,South,181,12.1,19.8,12,0.00,,CLR,0.00,VWS V14.00,2015-07-07 18:55:00,
2015-07-07 12:00:00,93.2,31.0,29.95,South,173,14.4,19.8,11,0.00,,CLR,0.00,VWS V14.00,2015-07-07 19:00:00,
2015-07-07 12:05:00,93.9,31.5,29.95,SE,137,15.8,15.8,11,0.00,,CLR,0.00,VWS V14.00,2015-07-07 19:05:00,
2015-07-07 12:10:00,93.9,37.5,29.95,ESE,115,12.4,16.4,14,0.00,,CLR,0.00,VWS V14.00,2015-07-07 19:10:00,
2015-07-07 12:15:00,93.2,31.0,29.95,SSE,165,12.1,19.8,11,0.00,,CLR,0.00,VWS V14.00,2015-07-07 19:15:00,
2015-07-07 12:20:00,93.0,33.0,29.95,South,171,16.4,19.8,12,0.00,,CLR,0.00,VWS V14.00,2015-07-07 19:20:00,
2015-07-07 12:25:00,93.2,31.0,29.95,South,170,10.7,19.8,11,0.00,,CLR,0.00,VWS V14.00,2015-07-07 19:25:00,
2015-07-07 12:30:00,92.1,32.3,29.95,South,188,11.4,26.2,12,0.00,,CLR,0.00,VWS V14.00,2015-07-07 19:30:00,
2015-07-07 12:35:00,92.3,32.4,29.95,South,190,15.8,19.1,12,0.00,,CLR,0.00,VWS V14.00,2015-07-07 19:35:00,
2015-07-07 12:40:00,92.8,32.8,29.95,South,178,15.1,19.1,12,0.00,,CLR,0.00,VWS V14.00,2015-07-07 19:40:00,
2015-07-07 12:45:00,92.8,32.8,29.92,South,189,9.4,19.1,12,0.00,,CLR,0.00,VWS V14.00,2015-07-07 19:45:00,
2015-07-07 12:50:00,93.2,31.0,29.92,SSE,153,7.4,19.8,11,0.00,,CLR,0.00,VWS V14.00,2015-07-07 19:50:00,
2015-07-07 12:55:00,93.4,31.1,29.92,South,181,9.4,22.5,11,0.00,,CLR,0.00,VWS V14.00,2015-07-07 19:55:00,
2015-07-07 13:00:00,92.8,32.8,29.92,South,189,8.7,22.5,12,0.00,,CLR,0.00,VWS V14.00,2015-07-07 20:00:00,
2015-07-07 13:05:00,92.1,32.3,29.92,South,169,8.7,15.1,12,0.00,,CLR,0.00,VWS V14.00,2015-07-07 20:05:00,
2015-07-07 13:10:00,91.2,31.6,29.92,South,172,9.4,17.1,12,0.00,,CLR,0.00,VWS V14.00,2015-07-07 20:10:00,
2015-07-07 13:20:00,90.9,31.3,29.92,SSE,163,12.1,21.1,12,0.00,,CLR,0.00,VWS V14.00,2015-07-07 20:20:00,
2015-07-07 13:25:00,90.7,31.2,29.92,South,172,19.8,21.1,12,0.00,,CLR,0.00,VWS V14.00,2015-07-07 20:25:00,
2015-07-07 13:30:00,90.9,31.3,29.92,SSE,160,9.4,21.1,12,0.00,,CLR,0.00,VWS V14.00,2015-07-07 20:30:00,
2015-07-07 13:35:00,91.0,31.4,29.92,SSE,151,15.1,18.5,12,0.00,,CLR,0.00,VWS V14.00,2015-07-07 20:35:00,
2015-07-07 13:40:00,91.2,31.6,29.92,ESE,116,11.4,23.2,12,0.00,,CLR,0.00,VWS V14.00,2015-07-07 20:40:00,